createdAt,value
2022-10-11T00:02:26.434Z,0.2
2022-10-11T00:04:57.131Z,0.5
2022-10-11T00:07:27.721Z,0.2
2022-10-11T00:09:58.325Z,0.0
2022-10-11T00:15:09.079Z,0.0
2022-10-11T00:17:39.664Z,0.0
2022-10-11T00:20:10.273Z,0.0
2022-10-11T00:22:40.861Z,0.0
2022-10-11T00:25:11.482Z,0.0
2022-10-11T00:27:52.065Z,0.0
2022-10-11T00:30:22.699Z,0.0
2022-10-11T00:32:53.284Z,0.0
2022-10-11T00:35:23.885Z,0.0
2022-10-11T00:37:54.478Z,0.0
2022-10-11T00:40:25.080Z,0.0
2022-10-11T00:43:05.672Z,0.5
2022-10-11T00:45:36.289Z,0.2
2022-10-11T00:48:06.877Z,0.0
2022-10-11T00:50:37.470Z,0.0
2022-10-11T00:55:38.203Z,0.0
2022-10-11T00:58:18.808Z,0.0
2022-10-11T01:00:49.422Z,0.0
2022-10-11T01:03:19.998Z,0.0
2022-10-11T01:05:51.004Z,0.0
2022-10-11T01:08:21.600Z,0.0
2022-10-11T01:10:52.210Z,0.0
2022-10-11T01:13:32.819Z,0.0
2022-10-11T01:16:03.595Z,0.0
2022-10-11T01:18:34.456Z,0.0
2022-10-11T01:21:05.039Z,0.0
2022-10-11T01:23:35.648Z,0.2
2022-10-11T01:26:16.735Z,0.0
2022-10-11T01:28:47.561Z,0.0
2022-10-11T01:31:18.170Z,0.0
2022-10-11T01:36:19.160Z,0.0
2022-10-11T01:41:29.937Z,0.0
2022-10-11T01:44:00.519Z,0.0
2022-10-11T01:46:31.093Z,0.0
2022-10-11T01:49:01.716Z,0.2
2022-10-11T01:51:32.287Z,0.0
2022-10-11T01:54:02.872Z,0.0
2022-10-11T01:56:43.505Z,0.0
2022-10-11T01:59:14.132Z,0.0
2022-10-11T02:01:45.012Z,0.0
2022-10-11T02:04:15.708Z,0.0
2022-10-11T02:06:46.278Z,0.0
2022-10-11T02:09:18.376Z,0.0
2022-10-11T02:11:58.990Z,0.0
2022-10-11T02:16:59.724Z,0.0
2022-10-11T02:19:30.332Z,0.0
2022-10-11T02:22:00.913Z,0.0
2022-10-11T02:24:41.534Z,0.0
2022-10-11T02:27:12.115Z,0.0
2022-10-11T02:29:52.705Z,0.0
2022-10-11T02:32:23.297Z,0.0
2022-10-11T02:34:53.903Z,0.0
2022-10-11T02:37:24.526Z,0.0
2022-10-11T02:40:05.144Z,0.0
2022-10-11T02:42:35.725Z,0.0
2022-10-11T02:45:06.330Z,0.0
2022-10-11T02:47:36.939Z,0.0
2022-10-11T02:50:07.531Z,0.0
2022-10-11T02:52:38.099Z,0.0
2022-10-11T02:57:48.846Z,0.0
2022-10-11T03:00:19.441Z,0.0
2022-10-11T03:02:50.026Z,0.0
2022-10-11T03:05:20.628Z,0.0
2022-10-11T03:07:51.209Z,0.0
2022-10-11T03:10:31.844Z,0.0
2022-10-11T03:13:02.446Z,0.0
2022-10-11T03:15:33.064Z,0.0
2022-10-11T03:18:03.649Z,0.0
2022-10-11T03:20:34.272Z,0.0
2022-10-11T03:23:14.984Z,0.0
2022-10-11T03:25:45.577Z,0.0
2022-10-11T03:28:16.201Z,0.0
2022-10-11T03:30:46.831Z,0.0
2022-10-11T03:33:17.439Z,0.0
2022-10-11T03:38:33.099Z,0.0
2022-10-11T03:41:03.679Z,0.0
2022-10-11T03:43:34.264Z,0.0
2022-10-11T03:46:05.059Z,0.0
2022-10-11T03:48:35.792Z,0.0
2022-10-11T03:51:06.362Z,0.0
2022-10-11T03:53:46.965Z,0.0
2022-10-11T03:56:18.731Z,0.0
2022-10-11T03:58:49.352Z,0.0
2022-10-11T04:01:19.969Z,0.0
2022-10-11T04:03:50.629Z,0.0
2022-10-11T04:06:21.216Z,0.0
2022-10-11T04:11:31.955Z,0.0
2022-10-11T04:14:02.582Z,0.0
2022-10-11T04:19:03.308Z,0.0
2022-10-11T04:21:33.888Z,0.0
2022-10-11T04:24:14.505Z,0.0
2022-10-11T04:26:45.273Z,0.0
2022-10-11T04:29:15.987Z,0.0
2022-10-11T04:31:46.609Z,0.0
2022-10-11T04:34:17.283Z,0.0
2022-10-11T04:37:00.167Z,0.0
2022-10-11T04:39:30.781Z,0.0
2022-10-11T04:42:01.368Z,0.0
2022-10-11T04:44:31.986Z,0.0
2022-10-11T04:47:02.586Z,0.0
2022-10-11T04:49:33.188Z,0.0
2022-10-11T04:52:13.781Z,0.0
2022-10-11T04:54:44.369Z,0.0
2022-10-11T04:59:49.300Z,0.0
2022-10-11T05:02:10.762Z,0.0
2022-10-11T05:04:41.374Z,0.0
2022-10-11T05:07:21.981Z,0.0
2022-10-11T05:09:52.568Z,0.0
2022-10-11T05:12:23.149Z,0.0
2022-10-11T05:14:53.756Z,0.0
2022-10-11T05:17:34.333Z,0.0
2022-10-11T05:20:04.935Z,0.0
2022-10-11T05:22:45.547Z,0.0
2022-10-11T05:25:16.202Z,0.0
2022-10-11T05:27:46.792Z,0.0
2022-10-11T05:30:17.419Z,0.0
2022-10-11T05:32:48.591Z,0.0
2022-10-11T05:35:19.204Z,0.0
2022-10-11T05:40:29.934Z,0.0
2022-10-11T05:43:00.503Z,0.0
2022-10-11T05:45:31.095Z,0.0
2022-10-11T05:48:01.714Z,0.0
2022-10-11T05:50:34.606Z,0.0
2022-10-11T05:53:05.177Z,0.0
2022-10-11T05:55:45.772Z,0.0
2022-10-11T05:58:16.372Z,0.0
2022-10-11T06:00:46.989Z,0.0
2022-10-11T06:03:17.567Z,0.0
2022-10-11T06:05:58.156Z,0.0
2022-10-11T06:08:28.751Z,0.0
2022-10-11T06:10:59.338Z,0.0
2022-10-11T06:13:29.966Z,0.0
2022-10-11T06:16:00.532Z,0.0
2022-10-11T06:21:11.292Z,0.0
2022-10-11T06:23:41.904Z,0.5
2022-10-11T06:26:12.999Z,0.0
2022-10-11T06:28:43.851Z,0.0
2022-10-11T06:31:14.505Z,0.0
2022-10-11T06:33:45.132Z,0.0
2022-10-11T06:36:26.231Z,0.0
2022-10-11T06:39:01.330Z,0.0
2022-10-11T06:41:21.919Z,0.0
2022-10-11T06:43:52.515Z,0.0
2022-10-11T06:46:23.517Z,0.0
2022-10-11T06:49:04.154Z,0.0
2022-10-11T06:51:34.738Z,0.0
2022-10-11T06:54:05.328Z,0.0
2022-10-11T06:56:35.970Z,0.0
2022-10-11T07:01:37.037Z,0.0
2022-10-11T07:04:17.663Z,0.0
2022-10-11T07:06:48.256Z,0.0
2022-10-11T07:09:18.873Z,0.0
2022-10-11T07:11:49.452Z,0.0
2022-10-11T07:14:20.034Z,0.0
2022-10-11T07:16:50.668Z,0.0
2022-10-11T07:19:31.278Z,0.0
2022-10-11T07:22:11.874Z,0.0
2022-10-11T07:24:42.534Z,0.0
2022-10-11T07:27:13.119Z,0.0
2022-10-11T07:29:43.714Z,0.0
2022-10-11T07:32:14.293Z,0.0
2022-10-11T07:34:54.919Z,0.0
2022-10-11T07:37:25.547Z,0.0
2022-10-11T07:42:26.294Z,0.0
2022-10-11T07:44:56.921Z,0.0
2022-10-11T07:47:31.589Z,0.0
2022-10-11T07:50:02.182Z,0.0
2022-10-11T07:52:32.745Z,0.0
2022-10-11T07:55:03.348Z,0.0
2022-10-11T07:57:33.987Z,0.0
2022-10-11T08:00:10.361Z,0.0
2022-10-11T08:02:50.981Z,0.0
2022-10-11T08:05:21.597Z,0.0
2022-10-11T08:10:22.427Z,0.0
2022-10-11T08:12:53.040Z,0.0
2022-10-11T08:15:23.661Z,1.1
2022-10-11T08:18:04.259Z,0.8
2022-10-11T08:23:04.990Z,1.3
2022-10-11T08:25:35.613Z,0.8
2022-10-11T08:28:06.214Z,0.5
2022-10-11T08:30:36.827Z,2.7
2022-10-11T08:33:18.875Z,1.9
2022-10-11T08:35:49.506Z,0.2
2022-10-11T08:38:20.100Z,0.8
2022-10-11T08:40:55.292Z,1.9
2022-10-11T08:43:25.911Z,0.0
2022-10-11T08:45:56.506Z,0.0
2022-10-11T08:48:37.127Z,0.0
2022-10-11T08:51:07.747Z,0.0
2022-10-11T08:53:38.338Z,0.0
2022-10-11T08:56:09.410Z,0.0
2022-10-11T08:58:40.170Z,0.8
2022-10-11T09:03:50.896Z,1.3
2022-10-11T09:06:21.488Z,0.8
2022-10-11T09:08:52.098Z,1.1
2022-10-11T09:11:22.678Z,0.2
2022-10-11T09:13:53.270Z,0.5
2022-10-11T09:16:33.877Z,1.9
2022-10-11T09:19:04.463Z,0.5
2022-10-11T09:21:35.038Z,1.3
2022-10-11T09:24:05.660Z,1.6
2022-10-11T09:26:36.288Z,1.1
2022-10-11T09:29:11.421Z,0.8
2022-10-11T09:31:42.053Z,0.8
2022-10-11T09:34:12.673Z,0.2
2022-10-11T09:36:43.247Z,0.0
2022-10-11T09:39:27.116Z,0.8
2022-10-11T09:44:17.837Z,1.3
2022-10-11T09:46:58.430Z,0.8
2022-10-11T09:49:29.046Z,2.5
2022-10-11T09:51:59.644Z,1.9
2022-10-11T09:54:30.240Z,1.3
2022-10-11T09:57:00.826Z,2.5
2022-10-11T09:59:31.438Z,3.0
2022-10-11T10:02:12.211Z,3.0
2022-10-11T10:04:42.868Z,3.0
2022-10-11T10:07:13.459Z,3.3
2022-10-11T10:09:44.065Z,4.4
2022-10-11T10:12:14.662Z,2.5
2022-10-11T10:14:55.259Z,1.6
2022-10-11T10:17:25.846Z,1.6
2022-10-11T10:19:57.724Z,1.6
2022-10-11T10:24:58.442Z,0.5
2022-10-11T10:27:29.073Z,2.5
2022-10-11T10:30:09.683Z,2.5
2022-10-11T10:32:42.796Z,1.3
2022-10-11T10:35:14.444Z,1.1
2022-10-11T10:37:45.050Z,0.8
2022-10-11T10:40:15.706Z,0.2
2022-10-11T10:42:46.311Z,0.0
2022-10-11T10:45:32.483Z,0.2
2022-10-11T10:48:03.049Z,0.2
2022-10-11T10:50:33.669Z,0.2
2022-10-11T10:53:04.268Z,1.9
2022-10-11T10:55:34.863Z,2.5
2022-10-11T10:58:05.541Z,0.5
2022-10-11T11:00:46.143Z,1.9
2022-10-11T11:05:46.871Z,0.0
2022-10-11T11:08:17.428Z,1.3
2022-10-11T11:10:48.046Z,1.6
2022-10-11T11:13:18.652Z,1.1
2022-10-11T11:15:59.268Z,1.3
2022-10-11T11:18:29.865Z,1.3
2022-10-11T11:21:00.457Z,1.1
2022-10-11T11:23:31.068Z,3.0
2022-10-11T11:26:05.302Z,1.1
2022-10-11T11:28:46.568Z,1.1
2022-10-11T11:31:17.738Z,1.1
2022-10-11T11:33:49.000Z,2.5
2022-10-11T11:36:09.673Z,3.6
2022-10-11T11:38:40.344Z,1.3
2022-10-11T11:41:10.962Z,1.1
2022-10-11T11:46:31.759Z,1.1
2022-10-11T11:49:02.384Z,5.0
2022-10-11T11:51:35.625Z,1.6
2022-10-11T11:53:56.203Z,1.9
2022-10-11T11:56:26.799Z,1.3
2022-10-11T11:59:07.414Z,1.3
2022-10-11T12:01:41.804Z,0.8
2022-10-11T12:04:12.426Z,2.2
2022-10-11T12:06:58.062Z,2.7
2022-10-11T12:09:11.675Z,1.3
2022-10-11T12:11:45.638Z,2.5
2022-10-11T12:14:26.227Z,2.2
2022-10-11T12:16:56.818Z,13.0
2022-10-11T12:19:27.399Z,5.8
2022-10-11T12:21:57.991Z,5.2
2022-10-11T12:27:08.733Z,3.6
2022-10-11T12:29:39.626Z,5.2
2022-10-11T12:37:16.075Z,3.6
2022-10-11T12:39:46.679Z,6.3
2022-10-11T12:42:27.269Z,3.8
2022-10-11T12:44:57.880Z,18.3
2022-10-11T12:47:28.474Z,5.5
2022-10-11T12:49:59.084Z,6.6
2022-10-11T12:52:29.645Z,6.1
2022-10-11T12:55:00.248Z,4.7
2022-10-11T12:57:45.304Z,6.6
2022-10-11T13:00:06.830Z,4.4
2022-10-11T13:02:38.970Z,5.0
2022-10-11T13:07:39.681Z,5.5
2022-10-11T13:10:20.294Z,4.1
2022-10-11T13:12:50.900Z,5.5
2022-10-11T13:15:21.521Z,4.7
2022-10-11T13:17:58.295Z,4.4
2022-10-11T13:20:28.988Z,3.0
2022-10-11T13:22:59.605Z,6.1
2022-10-11T13:25:40.246Z,4.7
2022-10-11T13:28:10.847Z,5.8
2022-10-11T13:30:41.470Z,5.8
2022-10-11T13:33:12.059Z,4.4
2022-10-11T13:35:45.185Z,3.0
2022-10-11T13:38:15.770Z,2.5
2022-10-11T13:41:00.992Z,1.6
2022-10-11T13:43:21.578Z,2.2
2022-10-11T13:48:22.340Z,3.8
2022-10-11T13:50:52.949Z,2.7
2022-10-11T13:53:23.545Z,2.2
2022-10-11T13:56:04.377Z,3.0
2022-10-11T13:58:39.102Z,3.0
2022-10-11T14:01:09.823Z,4.4
2022-10-11T14:03:40.496Z,5.2
2022-10-11T14:06:11.079Z,3.3
2022-10-11T14:08:51.733Z,3.3
2022-10-11T14:11:26.923Z,2.7
2022-10-11T14:13:47.488Z,3.6
2022-10-11T14:16:18.501Z,3.6
2022-10-11T14:18:49.106Z,3.8
2022-10-11T14:21:19.687Z,3.0
2022-10-11T14:24:00.299Z,2.5
2022-10-11T14:29:01.199Z,2.2
2022-10-11T14:31:31.765Z,2.7
2022-10-11T14:34:12.371Z,10.5
2022-10-11T14:36:42.975Z,1.9
2022-10-11T14:39:23.598Z,1.1
2022-10-11T14:41:54.168Z,3.3
2022-10-11T14:44:24.776Z,1.9
2022-10-11T14:46:55.357Z,1.9
2022-10-11T14:49:25.978Z,3.3
2022-10-11T14:51:56.568Z,1.3
2022-10-11T14:54:37.153Z,1.9
2022-10-11T14:57:07.707Z,1.9
2022-10-11T14:59:38.302Z,1.3
2022-10-11T15:02:09.109Z,0.5
2022-10-11T15:04:39.677Z,1.6
2022-10-11T15:09:50.436Z,1.6
2022-10-11T15:12:21.035Z,1.3
2022-10-11T15:14:51.653Z,0.8
2022-10-11T15:17:22.239Z,1.6
2022-10-11T15:19:52.840Z,1.3
2022-10-11T15:22:33.438Z,2.7
2022-10-11T15:25:08.505Z,1.6
2022-10-11T15:27:29.097Z,1.9
2022-10-11T15:29:59.698Z,1.6
2022-10-11T15:35:10.439Z,0.5
2022-10-11T15:37:57.472Z,1.6
2022-10-11T15:40:18.074Z,3.3
2022-10-11T15:42:48.652Z,0.8
2022-10-11T15:45:19.261Z,1.3
2022-10-11T15:50:20.105Z,0.5
2022-10-11T15:53:00.686Z,1.6
2022-10-11T15:55:31.288Z,1.3
2022-10-11T15:58:01.860Z,1.1
2022-10-11T16:00:32.731Z,0.5
2022-10-11T16:03:03.338Z,1.1
2022-10-11T16:05:43.952Z,0.5
2022-10-11T16:08:14.509Z,0.5
2022-10-11T16:10:45.094Z,0.2
2022-10-11T16:13:15.699Z,0.5
2022-10-11T16:15:46.313Z,0.0
2022-10-11T16:18:16.878Z,0.0
2022-10-11T16:20:57.482Z,0.0
2022-10-11T16:23:28.105Z,0.0
2022-10-11T16:25:58.676Z,0.0
2022-10-11T16:30:59.398Z,0.0
2022-10-11T16:33:29.980Z,0.0
2022-10-11T16:36:10.585Z,0.0
2022-10-11T16:38:41.200Z,0.0
2022-10-11T16:41:11.773Z,0.2
2022-10-11T16:43:42.378Z,1.3
2022-10-11T16:46:13.422Z,1.6
2022-10-11T16:48:44.033Z,0.5
2022-10-11T16:51:24.646Z,8.0
2022-10-11T16:53:55.258Z,1.3
2022-10-11T16:56:26.293Z,0.8
2022-10-11T16:58:56.911Z,0.0
2022-10-11T17:01:27.629Z,0.5
2022-10-11T17:03:58.240Z,0.0
2022-10-11T17:06:38.831Z,0.0
2022-10-11T17:11:49.575Z,0.0
2022-10-11T17:14:20.187Z,0.0
2022-10-11T17:16:50.770Z,0.0
2022-10-11T17:19:31.353Z,0.0
2022-10-11T17:22:01.939Z,0.0
2022-10-11T17:24:32.529Z,0.0
2022-10-11T17:27:03.131Z,0.0
2022-10-11T17:29:33.709Z,0.0
2022-10-11T17:32:09.348Z,0.0
2022-10-11T17:34:39.953Z,0.0
2022-10-11T17:37:10.549Z,0.0
2022-10-11T17:39:41.178Z,0.0
2022-10-11T17:42:11.772Z,0.0
2022-10-11T17:44:42.377Z,0.0
2022-10-11T17:47:12.982Z,0.0
2022-10-11T17:52:23.720Z,0.0
2022-10-11T17:54:54.305Z,0.0
2022-10-11T17:57:24.887Z,0.0
2022-10-11T17:59:55.493Z,0.0
2022-10-11T18:02:36.109Z,0.0
2022-10-11T18:05:06.697Z,0.0
2022-10-11T18:07:37.255Z,0.0
2022-10-11T18:10:07.863Z,0.0
2022-10-11T18:15:18.630Z,0.0
2022-10-11T18:17:59.278Z,0.0
2022-10-11T18:20:29.875Z,0.0
2022-10-11T18:23:00.464Z,0.0
2022-10-11T18:25:31.069Z,0.0
2022-10-11T18:28:01.677Z,0.0
2022-10-11T18:33:12.434Z,0.0
2022-10-11T18:35:43.044Z,0.0
2022-10-11T18:38:17.838Z,0.0
2022-10-11T18:40:40.388Z,0.0
2022-10-11T18:43:12.790Z,0.0
2022-10-11T18:45:43.402Z,0.0
2022-10-11T18:48:24.030Z,0.0
2022-10-11T18:50:54.626Z,0.0
2022-10-11T18:53:25.237Z,0.0
2022-10-11T18:55:55.849Z,0.0
2022-10-11T18:58:26.463Z,0.0
2022-10-11T19:01:07.351Z,0.0
2022-10-11T19:03:44.318Z,0.0
2022-10-11T19:06:05.142Z,0.0
2022-10-11T19:08:35.950Z,0.0
2022-10-11T19:13:36.731Z,0.0
2022-10-11T19:16:27.840Z,0.0
2022-10-11T19:18:54.050Z,0.0
2022-10-11T19:21:25.178Z,0.0
2022-10-11T19:23:55.743Z,0.0
2022-10-11T19:26:26.631Z,0.0
2022-10-11T19:28:57.487Z,0.0
2022-10-11T19:31:38.116Z,0.0
2022-10-11T19:34:08.705Z,0.0
2022-10-11T19:36:45.685Z,0.0
2022-10-11T19:39:06.306Z,0.0
2022-10-11T19:41:36.910Z,0.0
2022-10-11T19:44:07.506Z,0.0
2022-10-11T19:47:15.180Z,0.0
2022-10-11T19:49:25.754Z,0.0
2022-10-11T19:54:26.487Z,0.0
2022-10-11T19:56:57.062Z,0.0
2022-10-11T19:59:37.682Z,0.0
2022-10-11T20:02:12.565Z,0.0
2022-10-11T20:05:03.186Z,0.0
2022-10-11T20:07:03.719Z,0.0
2022-10-11T20:09:49.942Z,0.0
2022-10-11T20:12:10.548Z,0.0
2022-10-11T20:14:51.193Z,0.0
2022-10-11T20:17:21.810Z,0.0
2022-10-11T20:19:52.412Z,0.0
2022-10-11T20:22:22.990Z,0.0
2022-10-11T20:24:54.310Z,0.0
2022-10-11T20:27:24.914Z,0.0
2022-10-11T20:30:05.507Z,0.0
2022-10-11T20:35:06.254Z,0.0
2022-10-11T20:37:36.843Z,0.0
2022-10-11T20:40:07.450Z,0.0
2022-10-11T20:42:40.204Z,0.0
2022-10-11T20:45:20.802Z,0.0
2022-10-11T20:47:51.965Z,0.0
2022-10-11T20:50:23.240Z,0.0
2022-10-11T20:52:54.287Z,0.5
2022-10-11T20:55:24.872Z,1.1
2022-10-11T20:57:55.941Z,0.2
2022-10-11T21:03:06.737Z,0.2
2022-10-11T21:05:37.327Z,0.2
2022-10-11T21:08:07.908Z,0.2
2022-10-11T21:10:38.507Z,0.0
2022-10-11T21:15:49.266Z,0.0
2022-10-11T21:18:20.082Z,0.5
2022-10-11T21:20:50.670Z,1.9
2022-10-11T21:23:21.250Z,0.5
2022-10-11T21:25:51.862Z,0.8
2022-10-11T21:28:32.676Z,0.2
2022-10-11T21:31:03.296Z,1.6
2022-10-11T21:33:33.889Z,0.2
2022-10-11T21:36:04.445Z,0.8
2022-10-11T21:38:35.105Z,1.6
2022-10-11T21:41:05.719Z,0.8
2022-10-11T21:43:46.337Z,1.3
2022-10-11T21:46:16.952Z,1.1
2022-10-11T21:48:47.555Z,1.1
2022-10-11T21:51:18.290Z,0.5
2022-10-11T21:56:19.039Z,0.2
2022-10-11T21:58:59.642Z,0.2
2022-10-11T22:01:30.498Z,0.5
2022-10-11T22:04:01.127Z,1.1
2022-10-11T22:06:31.702Z,0.5
2022-10-11T22:09:02.275Z,0.8
2022-10-11T22:11:32.854Z,1.6
2022-10-11T22:14:13.482Z,0.5
2022-10-11T22:16:44.089Z,0.5
2022-10-11T22:19:14.671Z,0.0
2022-10-11T22:21:45.477Z,0.0
2022-10-11T22:24:16.134Z,0.0
2022-10-11T22:26:46.761Z,0.2
2022-10-11T22:29:30.555Z,0.2
2022-10-11T22:32:03.742Z,0.8
2022-10-11T22:37:04.494Z,0.2
2022-10-11T22:39:35.156Z,1.9
2022-10-11T22:42:15.749Z,1.3
2022-10-11T22:44:46.330Z,0.2
2022-10-11T22:47:16.929Z,0.2
2022-10-11T22:49:47.511Z,0.0
2022-10-11T22:52:18.116Z,0.0
2022-10-11T22:54:48.709Z,0.0
2022-10-11T22:57:29.273Z,1.1
2022-10-11T22:59:59.859Z,0.2
2022-10-11T23:02:30.448Z,0.0
2022-10-11T23:05:01.045Z,0.2
2022-10-11T23:07:31.632Z,1.3
2022-10-11T23:10:02.235Z,0.8
2022-10-11T23:12:42.828Z,0.5
2022-10-11T23:17:43.556Z,1.1
2022-10-11T23:20:14.142Z,1.3
2022-10-11T23:22:44.708Z,2.2
2022-10-11T23:25:15.318Z,6.6
2022-10-11T23:27:56.321Z,2.2
2022-10-11T23:32:57.067Z,1.6
2022-10-11T23:35:27.651Z,1.9
2022-10-11T23:37:58.702Z,2.2
2022-10-11T23:40:39.324Z,2.7
2022-10-11T23:43:09.907Z,1.9
2022-10-11T23:45:40.510Z,1.6
2022-10-11T23:48:11.101Z,1.1
2022-10-11T23:50:41.742Z,1.9
2022-10-11T23:53:12.337Z,1.3
2022-10-11T23:58:33.117Z,1.9
